sensor_id;sensor_type;location;lat;lon;timestamp;temperature;humidity
11491;DHT22;5802;52.832;4.758;2024-01-15T00:02:06;22.80;40.00
11491;DHT22;5802;52.832;4.758;2024-01-15T00:04:36;22.80;40.00
11491;DHT22;5802;52.832;4.758;2024-01-15T00:07:05;22.80;40.00
11491;DHT22;5802;52.832;4.758;2024-01-15T00:09:32;22.80;40.00
11491;DHT22;5802;52.832;4.758;2024-01-15T00:11:59;22.80;39.90
11491;DHT22;5802;52.832;4.758;2024-01-15T00:14:26;22.80;39.90
11491;DHT22;5802;52.832;4.758;2024-01-15T00:16:53;22.80;40.00
11491;DHT22;5802;52.832;4.758;2024-01-15T00:19:21;22.80;39.90
11491;DHT22;5802;52.832;4.758;2024-01-15T00:21:49;22.80;39.90
11491;DHT22;5802;52.832;4.758;2024-01-15T00:24:17;22.80;39.90
11491;DHT22;5802;52.832;4.758;2024-01-15T00:26:44;22.80;39.90
11491;DHT22;5802;52.832;4.758;2024-01-15T00:29:11;22.80;39.90
11491;DHT22;5802;52.832;4.758;2024-01-15T00:31:38;22.80;39.90
11491;DHT22;5802;52.832;4.758;2024-01-15T00:34:05;22.80;39.90
11491;DHT22;5802;52.832;4.758;2024-01-15T00:36:32;22.80;39.90
11491;DHT22;5802;52.832;4.758;2024-01-15T00:38:59;22.80;39.90
11491;DHT22;5802;52.832;4.758;2024-01-15T00:41:27;22.80;39.90
11491;DHT22;5802;52.832;4.758;2024-01-15T00:43:54;22.80;39.90
11491;DHT22;5802;52.832;4.758;2024-01-15T00:46:21;22.80;39.80
11491;DHT22;5802;52.832;4.758;2024-01-15T00:48:48;22.80;39.90
11491;DHT22;5802;52.832;4.758;2024-01-15T00:51:15;22.80;40.50
11491;DHT22;5802;52.832;4.758;2024-01-15T00:53:42;22.80;39.80
11491;DHT22;5802;52.832;4.758;2024-01-15T00:56:08;22.80;39.80
11491;DHT22;5802;52.832;4.758;2024-01-15T00:58:37;22.80;39.80
11491;DHT22;5802;52.832;4.758;2024-01-15T01:01:04;22.80;39.80
11491;DHT22;5802;52.832;4.758;2024-01-15T01:03:30;22.80;39.80
11491;DHT22;5802;52.832;4.758;2024-01-15T01:05:57;22.80;39.80
11491;DHT22;5802;52.832;4.758;2024-01-15T01:08:24;22.80;39.70
11491;DHT22;5802;52.832;4.758;2024-01-15T01:10:51;22.80;39.70
11491;DHT22;5802;52.832;4.758;2024-01-15T01:13:18;22.80;39.80
11491;DHT22;5802;52.832;4.758;2024-01-15T01:15:46;22.80;39.80
11491;DHT22;5802;52.832;4.758;2024-01-15T01:18:13;22.80;39.70
11491;DHT22;5802;52.832;4.758;2024-01-15T01:20:39;22.80;39.80
11491;DHT22;5802;52.832;4.758;2024-01-15T01:23:06;22.70;40.30
11491;DHT22;5802;52.832;4.758;2024-01-15T01:25:33;22.80;39.70
11491;DHT22;5802;52.832;4.758;2024-01-15T01:28:00;22.80;39.70
11491;DHT22;5802;52.832;4.758;2024-01-15T01:30:27;22.80;39.80
11491;DHT22;5802;52.832;4.758;2024-01-15T01:32:55;22.70;39.70
11491;DHT22;5802;52.832;4.758;2024-01-15T01:35:22;22.70;39.70
11491;DHT22;5802;52.832;4.758;2024-01-15T01:37:49;22.70;39.70
11491;DHT22;5802;52.832;4.758;2024-01-15T01:40:16;22.70;39.80
11491;DHT22;5802;52.832;4.758;2024-01-15T01:42:43;22.70;39.70
11491;DHT22;5802;52.832;4.758;2024-01-15T01:45:11;22.70;39.70
11491;DHT22;5802;52.832;4.758;2024-01-15T01:47:38;22.70;39.80
11491;DHT22;5802;52.832;4.758;2024-01-15T01:50:07;22.70;39.70
11491;DHT22;5802;52.832;4.758;2024-01-15T01:52:34;22.70;39.70
11491;DHT22;5802;52.832;4.758;2024-01-15T01:55:03;22.70;39.70
11491;DHT22;5802;52.832;4.758;2024-01-15T01:57:31;22.70;39.70
11491;DHT22;5802;52.832;4.758;2024-01-15T02:00:01;22.70;39.70
11491;DHT22;5802;52.832;4.758;2024-01-15T02:02:29;22.70;39.70
11491;DHT22;5802;52.832;4.758;2024-01-15T02:04:56;22.70;39.70
11491;DHT22;5802;52.832;4.758;2024-01-15T02:07:24;22.70;39.70
11491;DHT22;5802;52.832;4.758;2024-01-15T02:09:52;22.70;39.70
11491;DHT22;5802;52.832;4.758;2024-01-15T02:12:18;22.70;39.70
11491;DHT22;5802;52.832;4.758;2024-01-15T02:14:45;22.70;39.70
11491;DHT22;5802;52.832;4.758;2024-01-15T02:17:12;22.70;39.70
11491;DHT22;5802;52.832;4.758;2024-01-15T02:19:39;22.70;39.70
11491;DHT22;5802;52.832;4.758;2024-01-15T02:22:06;22.70;39.60
11491;DHT22;5802;52.832;4.758;2024-01-15T02:24:34;22.70;39.60
11491;DHT22;5802;52.832;4.758;2024-01-15T02:27:01;22.70;39.60
11491;DHT22;5802;52.832;4.758;2024-01-15T02:29:28;22.70;39.60
11491;DHT22;5802;52.832;4.758;2024-01-15T02:31:55;22.70;39.60
11491;DHT22;5802;52.832;4.758;2024-01-15T02:34:22;22.70;39.60
11491;DHT22;5802;52.832;4.758;2024-01-15T02:36:49;22.70;39.60
11491;DHT22;5802;52.832;4.758;2024-01-15T02:39:16;22.70;39.70
11491;DHT22;5802;52.832;4.758;2024-01-15T02:41:44;22.70;39.60
11491;DHT22;5802;52.832;4.758;2024-01-15T02:44:11;22.70;39.60
11491;DHT22;5802;52.832;4.758;2024-01-15T02:46:37;22.70;39.60
11491;DHT22;5802;52.832;4.758;2024-01-15T02:49:04;22.70;39.60
11491;DHT22;5802;52.832;4.758;2024-01-15T02:51:31;22.70;39.60
11491;DHT22;5802;52.832;4.758;2024-01-15T02:53:58;22.70;39.60
11491;DHT22;5802;52.832;4.758;2024-01-15T02:56:25;22.70;39.60
11491;DHT22;5802;52.832;4.758;2024-01-15T02:58:53;22.70;39.60
11491;DHT22;5802;52.832;4.758;2024-01-15T03:01:20;22.70;39.60
11491;DHT22;5802;52.832;4.758;2024-01-15T03:03:47;22.70;39.60
11491;DHT22;5802;52.832;4.758;2024-01-15T03:06:14;22.70;39.50
11491;DHT22;5802;52.832;4.758;2024-01-15T03:08:41;22.70;39.50
11491;DHT22;5802;52.832;4.758;2024-01-15T03:11:08;22.70;39.50
11491;DHT22;5802;52.832;4.758;2024-01-15T03:13:36;22.70;40.20
11491;DHT22;5802;52.832;4.758;2024-01-15T03:16:04;22.70;39.50
11491;DHT22;5802;52.832;4.758;2024-01-15T03:18:31;22.70;39.50
11491;DHT22;5802;52.832;4.758;2024-01-15T03:20:58;22.70;39.50
11491;DHT22;5802;52.832;4.758;2024-01-15T03:23:26;22.70;39.50
11491;DHT22;5802;52.832;4.758;2024-01-15T03:25:53;22.60;39.50
11491;DHT22;5802;52.832;4.758;2024-01-15T03:28:20;22.60;39.50
11491;DHT22;5802;52.832;4.758;2024-01-15T03:30:47;22.70;39.60
11491;DHT22;5802;52.832;4.758;2024-01-15T03:33:15;22.60;39.50
11491;DHT22;5802;52.832;4.758;2024-01-15T03:35:42;22.60;39.50
11491;DHT22;5802;52.832;4.758;2024-01-15T03:38:09;22.60;39.50
11491;DHT22;5802;52.832;4.758;2024-01-15T03:40:36;22.60;39.50
11491;DHT22;5802;52.832;4.758;2024-01-15T03:43:03;22.60;40.20
11491;DHT22;5802;52.832;4.758;2024-01-15T03:45:29;22.60;39.50
11491;DHT22;5802;52.832;4.758;2024-01-15T03:47:56;22.60;39.50
11491;DHT22;5802;52.832;4.758;2024-01-15T03:50:25;22.60;39.50
11491;DHT22;5802;52.832;4.758;2024-01-15T03:52:51;22.60;39.50
11491;DHT22;5802;52.832;4.758;2024-01-15T03:55:18;22.60;39.50
11491;DHT22;5802;52.832;4.758;2024-01-15T03:57:45;22.60;39.50
11491;DHT22;5802;52.832;4.758;2024-01-15T04:00:14;22.60;39.50
11491;DHT22;5802;52.832;4.758;2024-01-15T04:02:43;22.60;39.50
11491;DHT22;5802;52.832;4.758;2024-01-15T04:05:09;22.60;40.20
11491;DHT22;5802;52.832;4.758;2024-01-15T04:07:38;22.60;39.50
11491;DHT22;5802;52.832;4.758;2024-01-15T04:10:05;22.60;39.50
11491;DHT22;5802;52.832;4.758;2024-01-15T04:12:32;22.60;39.50
11491;DHT22;5802;52.832;4.758;2024-01-15T04:14:59;22.60;39.60
11491;DHT22;5802;52.832;4.758;2024-01-15T04:17:27;22.60;39.50
11491;DHT22;5802;52.832;4.758;2024-01-15T04:19:54;22.70;39.60
11491;DHT22;5802;52.832;4.758;2024-01-15T04:22:21;22.60;39.60
11491;DHT22;5802;52.832;4.758;2024-01-15T04:24:49;22.60;39.60
11491;DHT22;5802;52.832;4.758;2024-01-15T04:27:16;22.60;39.60
11491;DHT22;5802;52.832;4.758;2024-01-15T04:29:42;22.60;39.60
11491;DHT22;5802;52.832;4.758;2024-01-15T04:32:10;22.60;39.60
11491;DHT22;5802;52.832;4.758;2024-01-15T04:34:37;22.60;39.60
11491;DHT22;5802;52.832;4.758;2024-01-15T04:37:04;22.60;39.60
11491;DHT22;5802;52.832;4.758;2024-01-15T04:39:31;22.60;39.60
11491;DHT22;5802;52.832;4.758;2024-01-15T04:41:59;22.60;39.60
11491;DHT22;5802;52.832;4.758;2024-01-15T04:44:26;22.60;39.60
11491;DHT22;5802;52.832;4.758;2024-01-15T04:46:53;22.60;39.50
11491;DHT22;5802;52.832;4.758;2024-01-15T04:49:19;22.60;39.50
11491;DHT22;5802;52.832;4.758;2024-01-15T04:51:46;22.60;40.20
11491;DHT22;5802;52.832;4.758;2024-01-15T04:54:13;22.60;39.50
11491;DHT22;5802;52.832;4.758;2024-01-15T04:56:43;22.60;39.50
11491;DHT22;5802;52.832;4.758;2024-01-15T04:59:11;22.60;39.60
11491;DHT22;5802;52.832;4.758;2024-01-15T05:01:38;22.60;39.60
11491;DHT22;5802;52.832;4.758;2024-01-15T05:04:05;22.60;40.30
11491;DHT22;5802;52.832;4.758;2024-01-15T05:06:31;22.60;39.60
11491;DHT22;5802;52.832;4.758;2024-01-15T05:08:57;22.60;39.60
11491;DHT22;5802;52.832;4.758;2024-01-15T05:11:26;22.60;39.60
11491;DHT22;5802;52.832;4.758;2024-01-15T05:13:52;22.60;39.70
11491;DHT22;5802;52.832;4.758;2024-01-15T05:16:21;22.60;39.60
11491;DHT22;5802;52.832;4.758;2024-01-15T05:18:47;22.60;39.70
11491;DHT22;5802;52.832;4.758;2024-01-15T05:21:14;22.60;39.70
11491;DHT22;5802;52.832;4.758;2024-01-15T05:23:41;22.60;39.70
11491;DHT22;5802;52.832;4.758;2024-01-15T05:26:08;22.60;39.70
11491;DHT22;5802;52.832;4.758;2024-01-15T05:28:35;22.60;39.60
11491;DHT22;5802;52.832;4.758;2024-01-15T05:31:02;22.60;39.60
11491;DHT22;5802;52.832;4.758;2024-01-15T05:33:31;22.60;39.70
11491;DHT22;5802;52.832;4.758;2024-01-15T05:35:57;22.60;39.60
11491;DHT22;5802;52.832;4.758;2024-01-15T05:38:25;22.60;39.60
11491;DHT22;5802;52.832;4.758;2024-01-15T05:40:52;22.60;40.40
11491;DHT22;5802;52.832;4.758;2024-01-15T05:43:18;22.60;39.60
11491;DHT22;5802;52.832;4.758;2024-01-15T05:45:45;22.60;39.60
11491;DHT22;5802;52.832;4.758;2024-01-15T05:48:12;22.60;39.60
11491;DHT22;5802;52.832;4.758;2024-01-15T05:50:41;22.60;39.60
11491;DHT22;5802;52.832;4.758;2024-01-15T05:53:08;22.60;39.60
11491;DHT22;5802;52.832;4.758;2024-01-15T05:55:36;22.60;39.60
11491;DHT22;5802;52.832;4.758;2024-01-15T05:58:03;22.60;39.60
11491;DHT22;5802;52.832;4.758;2024-01-15T06:00:30;22.60;39.70
11491;DHT22;5802;52.832;4.758;2024-01-15T06:02:58;22.70;39.70
11491;DHT22;5802;52.832;4.758;2024-01-15T06:05:25;22.60;39.60
11491;DHT22;5802;52.832;4.758;2024-01-15T06:07:53;22.70;39.70
11491;DHT22;5802;52.832;4.758;2024-01-15T06:10:20;22.70;39.70
11491;DHT22;5802;52.832;4.758;2024-01-15T06:12:47;22.60;39.60
11491;DHT22;5802;52.832;4.758;2024-01-15T06:15:14;22.60;40.30
11491;DHT22;5802;52.832;4.758;2024-01-15T06:17:40;22.70;39.70
11491;DHT22;5802;52.832;4.758;2024-01-15T06:20:08;22.70;40.30
11491;DHT22;5802;52.832;4.758;2024-01-15T06:22:35;22.70;39.70
11491;DHT22;5802;52.832;4.758;2024-01-15T06:25:06;22.70;39.70
11491;DHT22;5802;52.832;4.758;2024-01-15T06:27:33;22.70;39.70
11491;DHT22;5802;52.832;4.758;2024-01-15T06:30:00;22.70;39.70
11491;DHT22;5802;52.832;4.758;2024-01-15T06:32:27;22.70;39.60
11491;DHT22;5802;52.832;4.758;2024-01-15T06:34:54;22.70;39.70
11491;DHT22;5802;52.832;4.758;2024-01-15T06:37:21;22.70;39.70
11491;DHT22;5802;52.832;4.758;2024-01-15T06:39:48;22.70;39.70
11491;DHT22;5802;52.832;4.758;2024-01-15T06:42:16;22.70;39.70
11491;DHT22;5802;52.832;4.758;2024-01-15T06:44:43;22.70;39.60
11491;DHT22;5802;52.832;4.758;2024-01-15T06:47:10;22.70;39.60
11491;DHT22;5802;52.832;4.758;2024-01-15T06:49:37;22.70;39.60
11491;DHT22;5802;52.832;4.758;2024-01-15T06:52:04;22.70;39.60
11491;DHT22;5802;52.832;4.758;2024-01-15T06:54:31;22.70;39.60
11491;DHT22;5802;52.832;4.758;2024-01-15T06:56:58;22.70;39.60
11491;DHT22;5802;52.832;4.758;2024-01-15T06:59:26;22.70;39.60
11491;DHT22;5802;52.832;4.758;2024-01-15T07:01:53;22.70;39.60
11491;DHT22;5802;52.832;4.758;2024-01-15T07:04:20;22.70;39.60
11491;DHT22;5802;52.832;4.758;2024-01-15T07:06:47;22.70;39.60
11491;DHT22;5802;52.832;4.758;2024-01-15T07:09:14;22.70;39.50
11491;DHT22;5802;52.832;4.758;2024-01-15T07:11:44;22.70;39.60
11491;DHT22;5802;52.832;4.758;2024-01-15T07:14:12;22.70;39.50
11491;DHT22;5802;52.832;4.758;2024-01-15T07:16:40;22.70;39.50
11491;DHT22;5802;52.832;4.758;2024-01-15T07:19:07;22.70;39.50
11491;DHT22;5802;52.832;4.758;2024-01-15T07:21:34;22.70;39.50
11491;DHT22;5802;52.832;4.758;2024-01-15T07:24:01;22.70;39.50
11491;DHT22;5802;52.832;4.758;2024-01-15T07:26:30;22.70;39.50
11491;DHT22;5802;52.832;4.758;2024-01-15T07:28:57;22.70;39.50
11491;DHT22;5802;52.832;4.758;2024-01-15T07:31:23;22.70;39.50
11491;DHT22;5802;52.832;4.758;2024-01-15T07:33:52;22.70;40.10
11491;DHT22;5802;52.832;4.758;2024-01-15T07:36:18;22.70;39.50
11491;DHT22;5802;52.832;4.758;2024-01-15T07:38:45;22.70;39.40
11491;DHT22;5802;52.832;4.758;2024-01-15T07:41:13;22.70;39.50
11491;DHT22;5802;52.832;4.758;2024-01-15T07:43:40;22.70;39.50
11491;DHT22;5802;52.832;4.758;2024-01-15T07:46:07;22.70;39.40
11491;DHT22;5802;52.832;4.758;2024-01-15T07:48:34;22.70;39.40
11491;DHT22;5802;52.832;4.758;2024-01-15T07:51:02;22.70;39.40
11491;DHT22;5802;52.832;4.758;2024-01-15T07:53:30;22.70;39.40
11491;DHT22;5802;52.832;4.758;2024-01-15T07:55:57;22.70;39.40
11491;DHT22;5802;52.832;4.758;2024-01-15T07:58:24;22.70;39.40
11491;DHT22;5802;52.832;4.758;2024-01-15T08:00:50;22.70;39.40
11491;DHT22;5802;52.832;4.758;2024-01-15T08:03:18;22.80;39.40
11491;DHT22;5802;52.832;4.758;2024-01-15T08:05:45;22.80;39.40
11491;DHT22;5802;52.832;4.758;2024-01-15T08:08:13;22.80;39.40
11491;DHT22;5802;52.832;4.758;2024-01-15T08:10:40;22.80;39.40
11491;DHT22;5802;52.832;4.758;2024-01-15T08:13:07;22.80;39.40
11491;DHT22;5802;52.832;4.758;2024-01-15T08:15:34;22.80;39.40
11491;DHT22;5802;52.832;4.758;2024-01-15T08:18:01;22.80;39.30
11491;DHT22;5802;52.832;4.758;2024-01-15T08:20:28;22.80;39.40
11491;DHT22;5802;52.832;4.758;2024-01-15T08:22:56;22.80;39.30
11491;DHT22;5802;52.832;4.758;2024-01-15T08:25:24;22.80;39.30
11491;DHT22;5802;52.832;4.758;2024-01-15T08:27:51;22.80;39.20
11491;DHT22;5802;52.832;4.758;2024-01-15T08:30:18;22.80;39.20
11491;DHT22;5802;52.832;4.758;2024-01-15T08:32:46;22.80;39.20
11491;DHT22;5802;52.832;4.758;2024-01-15T08:35:12;22.80;39.10
11491;DHT22;5802;52.832;4.758;2024-01-15T08:37:39;22.80;39.10
11491;DHT22;5802;52.832;4.758;2024-01-15T08:40:07;22.80;39.10
11491;DHT22;5802;52.832;4.758;2024-01-15T08:42:35;22.80;39.10
11491;DHT22;5802;52.832;4.758;2024-01-15T08:45:02;22.80;39.10
11491;DHT22;5802;52.832;4.758;2024-01-15T08:47:29;22.80;39.10
11491;DHT22;5802;52.832;4.758;2024-01-15T08:49:56;22.90;39.20
11491;DHT22;5802;52.832;4.758;2024-01-15T08:52:24;22.90;39.20
11491;DHT22;5802;52.832;4.758;2024-01-15T08:54:51;22.90;39.10
11491;DHT22;5802;52.832;4.758;2024-01-15T08:57:18;22.90;39.10
11491;DHT22;5802;52.832;4.758;2024-01-15T08:59:46;22.90;39.00
11491;DHT22;5802;52.832;4.758;2024-01-15T09:02:13;22.90;39.00
11491;DHT22;5802;52.832;4.758;2024-01-15T09:04:40;22.90;39.00
11491;DHT22;5802;52.832;4.758;2024-01-15T09:07:07;22.90;39.00
11491;DHT22;5802;52.832;4.758;2024-01-15T09:09:34;22.90;39.00
11491;DHT22;5802;52.832;4.758;2024-01-15T09:12:02;22.90;39.00
11491;DHT22;5802;52.832;4.758;2024-01-15T09:14:28;22.90;38.90
11491;DHT22;5802;52.832;4.758;2024-01-15T09:16:57;22.90;38.90
11491;DHT22;5802;52.832;4.758;2024-01-15T09:19:23;23.00;39.00
11491;DHT22;5802;52.832;4.758;2024-01-15T09:21:50;23.00;38.90
11491;DHT22;5802;52.832;4.758;2024-01-15T09:24:17;23.00;39.10
11491;DHT22;5802;52.832;4.758;2024-01-15T09:26:44;23.00;38.90
11491;DHT22;5802;52.832;4.758;2024-01-15T09:29:14;23.00;38.90
11491;DHT22;5802;52.832;4.758;2024-01-15T09:31:41;23.00;38.80
11491;DHT22;5802;52.832;4.758;2024-01-15T09:34:10;23.00;38.90
11491;DHT22;5802;52.832;4.758;2024-01-15T09:36:39;23.10;38.90
11491;DHT22;5802;52.832;4.758;2024-01-15T09:39:07;23.10;38.80
11491;DHT22;5802;52.832;4.758;2024-01-15T09:41:35;23.10;38.70
11491;DHT22;5802;52.832;4.758;2024-01-15T09:44:03;23.10;38.70
11491;DHT22;5802;52.832;4.758;2024-01-15T09:46:31;23.10;38.70
11491;DHT22;5802;52.832;4.758;2024-01-15T09:48:58;23.10;38.70
11491;DHT22;5802;52.832;4.758;2024-01-15T09:51:26;23.10;38.70
11491;DHT22;5802;52.832;4.758;2024-01-15T09:53:55;23.10;38.70
11491;DHT22;5802;52.832;4.758;2024-01-15T09:56:22;23.10;38.60
11491;DHT22;5802;52.832;4.758;2024-01-15T09:58:50;23.10;38.60
11491;DHT22;5802;52.832;4.758;2024-01-15T10:01:20;23.10;38.60
11491;DHT22;5802;52.832;4.758;2024-01-15T10:03:47;23.10;38.60
11491;DHT22;5802;52.832;4.758;2024-01-15T10:06:16;23.10;38.60
11491;DHT22;5802;52.832;4.758;2024-01-15T10:08:47;23.10;38.70
11491;DHT22;5802;52.832;4.758;2024-01-15T10:11:14;23.10;38.70
11491;DHT22;5802;52.832;4.758;2024-01-15T10:13:43;23.10;38.70
11491;DHT22;5802;52.832;4.758;2024-01-15T10:16:10;23.10;39.40
11491;DHT22;5802;52.832;4.758;2024-01-15T10:18:37;23.20;38.80
11491;DHT22;5802;52.832;4.758;2024-01-15T10:21:07;23.20;38.80
11491;DHT22;5802;52.832;4.758;2024-01-15T10:23:34;23.20;38.80
11491;DHT22;5802;52.832;4.758;2024-01-15T10:26:03;23.20;38.40
11491;DHT22;5802;52.832;4.758;2024-01-15T10:28:30;23.20;38.30
11491;DHT22;5802;52.832;4.758;2024-01-15T10:30:58;23.20;38.20
11491;DHT22;5802;52.832;4.758;2024-01-15T10:33:26;23.20;38.30
11491;DHT22;5802;52.832;4.758;2024-01-15T10:35:53;23.20;38.30
11491;DHT22;5802;52.832;4.758;2024-01-15T10:38:21;23.30;38.30
11491;DHT22;5802;52.832;4.758;2024-01-15T10:40:50;23.30;38.40
11491;DHT22;5802;52.832;4.758;2024-01-15T10:43:19;23.30;38.40
11491;DHT22;5802;52.832;4.758;2024-01-15T10:45:46;23.30;38.30
11491;DHT22;5802;52.832;4.758;2024-01-15T10:48:14;23.30;38.20
11491;DHT22;5802;52.832;4.758;2024-01-15T10:50:40;23.30;38.30
11491;DHT22;5802;52.832;4.758;2024-01-15T10:53:08;23.30;38.30
11491;DHT22;5802;52.832;4.758;2024-01-15T10:55:38;23.30;38.30
11491;DHT22;5802;52.832;4.758;2024-01-15T10:58:05;23.30;38.30
11491;DHT22;5802;52.832;4.758;2024-01-15T11:00:35;23.30;38.30
11491;DHT22;5802;52.832;4.758;2024-01-15T11:03:04;23.30;38.30
11491;DHT22;5802;52.832;4.758;2024-01-15T11:05:33;23.30;38.30
11491;DHT22;5802;52.832;4.758;2024-01-15T11:08:01;23.30;38.30
11491;DHT22;5802;52.832;4.758;2024-01-15T11:10:44;23.30;38.30
11491;DHT22;5802;52.832;4.758;2024-01-15T11:13:15;23.40;38.30
11491;DHT22;5802;52.832;4.758;2024-01-15T11:15:57;23.30;38.20
11491;DHT22;5802;52.832;4.758;2024-01-15T11:18:27;23.30;38.20
11491;DHT22;5802;52.832;4.758;2024-01-15T11:21:22;23.40;38.30
11491;DHT22;5802;52.832;4.758;2024-01-15T11:23:52;23.40;38.30
11491;DHT22;5802;52.832;4.758;2024-01-15T11:26:32;23.40;38.40
11491;DHT22;5802;52.832;4.758;2024-01-15T11:29:01;23.30;38.40
11491;DHT22;5802;52.832;4.758;2024-01-15T11:31:56;23.30;38.40
11491;DHT22;5802;52.832;4.758;2024-01-15T11:34:50;23.30;38.50
11491;DHT22;5802;52.832;4.758;2024-01-15T11:37:18;23.30;38.50
11491;DHT22;5802;52.832;4.758;2024-01-15T11:39:45;23.30;38.50
11491;DHT22;5802;52.832;4.758;2024-01-15T11:42:13;23.30;38.60
11491;DHT22;5802;52.832;4.758;2024-01-15T11:44:41;23.40;38.70
11491;DHT22;5802;52.832;4.758;2024-01-15T11:47:11;23.40;38.60
11491;DHT22;5802;52.832;4.758;2024-01-15T11:49:59;23.40;38.50
11491;DHT22;5802;52.832;4.758;2024-01-15T11:52:32;23.50;38.60
11491;DHT22;5802;52.832;4.758;2024-01-15T11:55:16;23.50;38.50
11491;DHT22;5802;52.832;4.758;2024-01-15T11:57:46;23.50;38.40
11491;DHT22;5802;52.832;4.758;2024-01-15T12:00:13;23.50;38.40
11491;DHT22;5802;52.832;4.758;2024-01-15T12:02:43;23.50;38.30
11491;DHT22;5802;52.832;4.758;2024-01-15T12:05:11;23.50;38.30
11491;DHT22;5802;52.832;4.758;2024-01-15T12:07:39;23.50;38.30
11491;DHT22;5802;52.832;4.758;2024-01-15T12:10:10;23.50;38.30
11491;DHT22;5802;52.832;4.758;2024-01-15T12:13:00;23.50;38.30
11491;DHT22;5802;52.832;4.758;2024-01-15T12:15:28;23.50;38.20
11491;DHT22;5802;52.832;4.758;2024-01-15T12:17:58;23.50;38.20
11491;DHT22;5802;52.832;4.758;2024-01-15T12:20:26;23.50;38.30
11491;DHT22;5802;52.832;4.758;2024-01-15T12:22:53;23.50;38.20
11491;DHT22;5802;52.832;4.758;2024-01-15T12:25:20;23.60;38.10
11491;DHT22;5802;52.832;4.758;2024-01-15T12:27:47;23.60;38.10
11491;DHT22;5802;52.832;4.758;2024-01-15T12:30:14;23.60;38.10
11491;DHT22;5802;52.832;4.758;2024-01-15T12:32:41;23.60;38.10
11491;DHT22;5802;52.832;4.758;2024-01-15T12:35:10;23.60;38.00
11491;DHT22;5802;52.832;4.758;2024-01-15T12:37:38;23.60;38.00
11491;DHT22;5802;52.832;4.758;2024-01-15T12:40:07;23.70;38.00
11491;DHT22;5802;52.832;4.758;2024-01-15T12:42:35;23.60;37.90
11491;DHT22;5802;52.832;4.758;2024-01-15T12:45:03;23.60;38.00
11491;DHT22;5802;52.832;4.758;2024-01-15T12:47:30;23.60;38.00
11491;DHT22;5802;52.832;4.758;2024-01-15T12:49:58;23.60;38.00
11491;DHT22;5802;52.832;4.758;2024-01-15T12:52:26;23.60;38.00
11491;DHT22;5802;52.832;4.758;2024-01-15T12:54:53;23.60;38.10
11491;DHT22;5802;52.832;4.758;2024-01-15T12:57:20;23.70;38.10
11491;DHT22;5802;52.832;4.758;2024-01-15T12:59:47;23.70;37.90
11491;DHT22;5802;52.832;4.758;2024-01-15T13:02:14;23.70;37.90
11491;DHT22;5802;52.832;4.758;2024-01-15T13:04:42;23.70;37.90
11491;DHT22;5802;52.832;4.758;2024-01-15T13:07:09;23.70;37.90
11491;DHT22;5802;52.832;4.758;2024-01-15T13:09:37;23.70;37.80
11491;DHT22;5802;52.832;4.758;2024-01-15T13:12:05;23.70;37.80
11491;DHT22;5802;52.832;4.758;2024-01-15T13:14:32;23.70;37.80
11491;DHT22;5802;52.832;4.758;2024-01-15T13:16:59;23.70;37.80
11491;DHT22;5802;52.832;4.758;2024-01-15T13:19:26;23.70;37.80
11491;DHT22;5802;52.832;4.758;2024-01-15T13:21:52;23.70;37.80
11491;DHT22;5802;52.832;4.758;2024-01-15T13:24:20;23.70;37.70
11491;DHT22;5802;52.832;4.758;2024-01-15T13:26:48;23.70;37.70
11491;DHT22;5802;52.832;4.758;2024-01-15T13:29:15;23.70;37.80
11491;DHT22;5802;52.832;4.758;2024-01-15T13:31:42;23.70;37.70
11491;DHT22;5802;52.832;4.758;2024-01-15T13:34:12;23.70;37.70
11491;DHT22;5802;52.832;4.758;2024-01-15T13:36:39;23.70;37.70
11491;DHT22;5802;52.832;4.758;2024-01-15T13:39:06;23.70;37.70
11491;DHT22;5802;52.832;4.758;2024-01-15T13:41:35;23.70;37.70
11491;DHT22;5802;52.832;4.758;2024-01-15T13:44:03;23.70;37.70
11491;DHT22;5802;52.832;4.758;2024-01-15T13:46:30;23.70;37.70
11491;DHT22;5802;52.832;4.758;2024-01-15T13:48:57;23.70;37.70
11491;DHT22;5802;52.832;4.758;2024-01-15T13:51:24;23.70;37.70
11491;DHT22;5802;52.832;4.758;2024-01-15T13:53:51;23.70;37.60
11491;DHT22;5802;52.832;4.758;2024-01-15T13:56:18;23.70;38.30
11491;DHT22;5802;52.832;4.758;2024-01-15T13:58:46;23.70;37.60
11491;DHT22;5802;52.832;4.758;2024-01-15T14:01:15;23.80;38.30
11491;DHT22;5802;52.832;4.758;2024-01-15T14:03:43;23.70;37.60
11491;DHT22;5802;52.832;4.758;2024-01-15T14:06:09;23.80;37.70
11491;DHT22;5802;52.832;4.758;2024-01-15T14:08:36;23.80;37.70
11491;DHT22;5802;52.832;4.758;2024-01-15T14:11:04;23.80;37.50
11491;DHT22;5802;52.832;4.758;2024-01-15T14:13:32;23.80;37.50
11491;DHT22;5802;52.832;4.758;2024-01-15T14:15:59;23.80;37.40
11491;DHT22;5802;52.832;4.758;2024-01-15T14:18:27;23.80;37.40
11491;DHT22;5802;52.832;4.758;2024-01-15T14:20:54;23.80;37.40
11491;DHT22;5802;52.832;4.758;2024-01-15T14:23:21;23.80;37.50
11491;DHT22;5802;52.832;4.758;2024-01-15T14:25:48;23.80;37.50
11491;DHT22;5802;52.832;4.758;2024-01-15T14:28:15;23.80;37.50
11491;DHT22;5802;52.832;4.758;2024-01-15T14:30:42;23.80;37.60
11491;DHT22;5802;52.832;4.758;2024-01-15T14:33:09;23.70;37.50
11491;DHT22;5802;52.832;4.758;2024-01-15T14:35:37;23.70;37.50
11491;DHT22;5802;52.832;4.758;2024-01-15T14:38:04;23.70;37.50
11491;DHT22;5802;52.832;4.758;2024-01-15T14:40:33;23.70;37.50
11491;DHT22;5802;52.832;4.758;2024-01-15T14:43:00;23.70;37.60
11491;DHT22;5802;52.832;4.758;2024-01-15T14:45:27;23.70;38.20
11491;DHT22;5802;52.832;4.758;2024-01-15T14:47:55;23.70;37.60
11491;DHT22;5802;52.832;4.758;2024-01-15T14:50:24;23.70;37.60
11491;DHT22;5802;52.832;4.758;2024-01-15T14:52:52;23.70;37.60
11491;DHT22;5802;52.832;4.758;2024-01-15T14:55:19;23.70;37.70
11491;DHT22;5802;52.832;4.758;2024-01-15T14:57:45;23.70;37.70
11491;DHT22;5802;52.832;4.758;2024-01-15T15:00:12;23.70;37.70
11491;DHT22;5802;52.832;4.758;2024-01-15T15:02:42;23.60;37.60
11491;DHT22;5802;52.832;4.758;2024-01-15T15:05:09;23.60;37.70
11491;DHT22;5802;52.832;4.758;2024-01-15T15:07:38;23.60;37.60
11491;DHT22;5802;52.832;4.758;2024-01-15T15:10:08;23.60;37.60
11491;DHT22;5802;52.832;4.758;2024-01-15T15:12:36;23.60;37.70
11491;DHT22;5802;52.832;4.758;2024-01-15T15:15:04;23.60;37.60
11491;DHT22;5802;52.832;4.758;2024-01-15T15:17:32;23.60;37.60
11491;DHT22;5802;52.832;4.758;2024-01-15T15:20:00;23.60;37.70
11491;DHT22;5802;52.832;4.758;2024-01-15T15:22:28;23.60;37.60
11491;DHT22;5802;52.832;4.758;2024-01-15T15:24:54;23.60;37.70
11491;DHT22;5802;52.832;4.758;2024-01-15T15:27:23;23.60;37.70
11491;DHT22;5802;52.832;4.758;2024-01-15T15:29:52;23.60;37.70
11491;DHT22;5802;52.832;4.758;2024-01-15T15:32:19;23.60;37.70
11491;DHT22;5802;52.832;4.758;2024-01-15T15:34:46;23.60;37.70
11491;DHT22;5802;52.832;4.758;2024-01-15T15:37:13;23.60;37.70
11491;DHT22;5802;52.832;4.758;2024-01-15T15:39:42;23.60;37.80
11491;DHT22;5802;52.832;4.758;2024-01-15T15:42:09;23.60;37.80
11491;DHT22;5802;52.832;4.758;2024-01-15T15:44:37;23.60;37.80
11491;DHT22;5802;52.832;4.758;2024-01-15T15:47:09;23.50;37.70
11491;DHT22;5802;52.832;4.758;2024-01-15T15:49:35;23.50;37.70